This demonstration page uses our WeatherBlox Daily Observations layout. Learn more.

Left ArrowRight Arrow

53.62937, 11.41316

Hourly Observations for April 7, 2022

Temp ( °F °C ) Dew Point ( °F °C ) Humidity (%) Winds ( mph kmh ) Pressure ( in mb ) Visibility ( mi km ) Precip ( " mm )
12:20 am 00:20 Cloudy 48 9 43 6 82 82 VRB 9 15 29.24 990 30 48 N/A
12:50 am 00:50 Cloudy 48 9 43 6 82 82 SSW 10 17 29.21 989 30 48 N/A
1:20 am 01:20 Cloudy 48 9 45 7 87 87 VRB 9 15 29.21 989 30 48 N/A
1:50 am 01:50 Cloudy 48 9 43 6 82 82 VRB 10 17 29.21 989 30 48 N/A
2:20 am 02:20 Cloudy 50 10 43 6 76 76 VRB 9 15 29.21 989 30 48 N/A
2:50 am 02:50 Mostly Cloudy 50 10 43 6 76 76 SSW 10 17 29.18 988 30 48 N/A
3:20 am 03:20 Mostly Cloudy 50 10 43 6 76 76 SSW 10 17 29.18 988 30 48 N/A
3:50 am 03:50 Cloudy 50 10 43 6 76 76 VRB 9 15 29.15 987 30 48 N/A
4:20 am 04:20 Mostly Cloudy 48 9 43 6 82 82 SSW 9 15 29.15 987 30 48 N/A
4:50 am 04:50 Mostly Cloudy 50 10 43 6 76 76 VRB 8 13 29.12 986 30 48 N/A
5:20 am 05:20 Cloudy 50 10 43 6 76 76 VRB 7 11 29.12 986 30 48 N/A
5:50 am 05:50 Mostly Cloudy 48 9 43 6 82 82 VRB 7 11 29.09 985 30 48 N/A
6:20 am 06:20 Mostly Cloudy 50 10 43 6 76 76 VRB 9 15 29.09 985 30 48 N/A
6:50 am 06:50 Cloudy 50 10 43 6 76 76 SSW 8 13 29.06 984 30 48 N/A
7:20 am 07:20 Mostly Cloudy 50 10 43 6 76 76 VRB 9 15 29.06 984 30 48 N/A
7:50 am 07:50 Mostly Cloudy 48 9 43 6 82 82 SSW 9 15 29.03 983 30 48 N/A
8:20 am 08:20 Mostly Cloudy with Light Rain 50 10 43 6 76 76 SSW 9 15 29.03 983 30 48 N/A
8:50 am 08:50 Mostly Cloudy with Light Rain 48 9 43 6 82 82 VRB 8 13 29.00 982 30 48 N/A
9:20 am 09:20 Mostly Cloudy 50 10 45 7 82 82 VRB 9 15 29.00 982 30 48 N/A
9:50 am 09:50 Cloudy with Light Rain 50 10 43 6 76 76 SSW 9 15 28.97 981 30 48 N/A
10:20 am 10:20 Mostly Cloudy with Light Rain 50 10 45 7 82 82 S 9 15 28.94 980 30 48 N/A
10:50 am 10:50 Mostly Cloudy with Light Rain 48 9 45 7 87 87 S 9 15 28.91 979 30 48 N/A
11:20 am 11:20 Mostly Cloudy with Light Rain 48 9 45 7 87 87 VRB 10 17 28.88 978 30 48 N/A
11:50 am 11:50 Mostly Cloudy with Rain 48 9 45 7 87 87 VRB 9 15 28.91 979 4 6 N/A
12:20 pm 12:20 Partly Cloudy with Light Rain 43 6 39 4 87 87 WSW 13 20 28.91 979 30 48 N/A
12:50 pm 12:50 Partly Cloudy with Light Rain 43 6 39 4 87 87 WSW 12 19 28.88 978 30 48 N/A
1:20 pm 13:20 Mostly Cloudy with Light Rain 41 5 39 4 93 93 VRB 8 13 28.88 978 30 48 N/A
1:50 pm 13:50 Mostly Cloudy with Light Rain 41 5 39 4 93 93 SSW 8 13 28.88 978 30 48 N/A
2:20 pm 14:20 Mostly Cloudy 46 8 41 5 82 82 SSW 8 13 28.88 978 30 48 N/A
2:50 pm 14:50 Mostly Cloudy 46 8 41 5 82 82 VRB 9 15 28.85 977 30 48 N/A
3:20 pm 15:20 Partly Cloudy 48 9 41 5 76 76 SW 12 19 28.85 977 30 48 N/A
3:50 pm 15:50 Mostly Cloudy with Light Showers 48 9 39 4 71 71 VRB 9 15 28.85 977 30 48 N/A
4:20 pm 16:20 Mostly Cloudy with Light Showers 45 7 41 5 87 87 WSW 14 22 28.85 977 30 48 N/A
4:50 pm 16:50 Partly Cloudy with Light Showers 46 8 43 6 87 87 SW 9 15 28.85 977 30 48 N/A
5:20 pm 17:20 Partly Cloudy with Light Rain 46 8 41 5 82 82 SW 8 13 28.85 977 30 48 N/A
5:50 pm 17:50 Partly Cloudy with Light Rain 45 7 39 4 81 81 WSW 15 24 28.85 977 30 48 N/A
6:20 pm 18:20 Mostly Cloudy with Light Rain 45 7 39 4 81 81 WSW 13 20 28.85 977 30 48 N/A
6:50 pm 18:50 Mostly Cloudy 46 8 39 4 76 76 WSW 18 30 28.85 977 30 48 N/A
7:20 pm 19:20 Mostly Cloudy 46 8 37 3 71 71 WSW 18 30 28.85 977 30 48 N/A
7:50 pm 19:50 Mostly Cloudy with Light Rain 45 7 39 4 81 81 WSW 12 19 28.85 977 3 4 N/A
8:20 pm 20:20 Mostly Cloudy with Light Rain 43 6 41 5 93 93 W 10 17 28.88 978 3 5 N/A
8:50 pm 20:50 Mostly Cloudy with Light Rain 43 6 39 4 87 87 WSW 14 22 28.88 978 30 48 N/A
9:20 pm 21:20 Mostly Cloudy 43 6 39 4 87 87 WSW 16 26 28.91 979 30 48 N/A
9:50 pm 21:50 Mostly Cloudy 45 7 39 4 81 81 WSW 12 19 28.88 978 30 48 N/A
10:20 pm 22:20 Mostly Cloudy 43 6 39 4 87 87 SW 10 17 28.88 978 30 48 N/A
10:50 pm 22:50 Mostly Cloudy 43 6 39 4 87 87 SW 9 15 28.88 978 30 48 N/A
11:20 pm 23:20 Mostly Cloudy 43 6 39 4 87 87 VRB 10 17 28.91 979 30 48 N/A
11:50 pm 23:50 Mostly Cloudy 41 5 39 4 93 93 WSW 14 22 28.91 979 30 48 N/A

Powered by AerisWeather